createdAt,value
2023-03-26T00:00:50.586Z,9.15
2023-03-26T00:01:54.386Z,8.15
2023-03-26T00:02:57.456Z,7.70
2023-03-26T00:04:00.711Z,8.70
2023-03-26T00:05:04.602Z,9.00
2023-03-26T00:06:10.835Z,7.80
2023-03-26T00:07:13.938Z,8.63
2023-03-26T00:08:17.946Z,7.22
2023-03-26T00:09:20.885Z,9.13
2023-03-26T00:10:23.918Z,8.13
2023-03-26T00:11:29.508Z,7.90
2023-03-26T00:12:32.560Z,7.93
2023-03-26T00:13:36.005Z,7.57
2023-03-26T00:14:41.157Z,8.35
2023-03-26T00:15:44.125Z,7.88
2023-03-26T00:16:47.831Z,7.88
2023-03-26T00:17:51.706Z,7.38
2023-03-26T00:18:55.404Z,7.65
2023-03-26T00:19:59.952Z,7.30
2023-03-26T00:21:05.682Z,8.70
2023-03-26T00:22:11.402Z,8.77
2023-03-26T00:23:14.589Z,7.55
2023-03-26T00:24:17.746Z,7.88
2023-03-26T00:25:21.661Z,8.02
2023-03-26T00:26:24.644Z,7.50
2023-03-26T00:27:29.151Z,7.85
2023-03-26T00:28:32.307Z,8.45
2023-03-26T00:29:35.883Z,7.88
2023-03-26T00:30:42.088Z,7.78
2023-03-26T00:31:46.736Z,7.55
2023-03-26T00:32:53.376Z,8.57
2023-03-26T00:33:57.319Z,7.63
2023-03-26T00:35:01.906Z,8.07
2023-03-26T00:36:10.289Z,7.60
2023-03-26T00:37:14.650Z,7.85
2023-03-26T00:38:18.001Z,7.70
2023-03-26T00:39:24.252Z,7.43
2023-03-26T00:40:27.602Z,6.85
2023-03-26T00:41:31.331Z,7.07
2023-03-26T00:42:34.754Z,7.63
2023-03-26T00:43:37.583Z,7.50
2023-03-26T00:44:40.614Z,8.15
2023-03-26T00:45:43.370Z,7.53
2023-03-26T00:46:46.310Z,7.43
2023-03-26T00:47:49.257Z,8.05
2023-03-26T00:48:52.190Z,7.82
2023-03-26T00:49:56.185Z,7.05
2023-03-26T00:50:59.833Z,7.43
2023-03-26T00:52:03.418Z,7.60
2023-03-26T00:53:06.274Z,7.72
2023-03-26T00:54:09.469Z,7.57
2023-03-26T00:55:13.472Z,7.63
2023-03-26T00:56:17.095Z,6.65
2023-03-26T00:57:34.687Z,7.82
2023-03-26T00:58:39.032Z,7.32
2023-03-26T00:59:42.548Z,7.40
2023-03-26T01:01:08.821Z,7.30
2023-03-26T01:02:17.371Z,7.18
2023-03-26T01:03:26.591Z,8.15
2023-03-26T01:04:34.874Z,7.15
2023-03-26T01:05:45.023Z,6.90
2023-03-26T01:06:47.784Z,7.05
2023-03-26T01:07:50.582Z,7.07
2023-03-26T01:08:54.976Z,7.10
2023-03-26T01:10:00.339Z,6.72
2023-03-26T01:11:15.577Z,8.23
2023-03-26T01:12:22.453Z,6.88
2023-03-26T01:13:25.834Z,7.30
2023-03-26T01:14:30.005Z,6.75
2023-03-26T01:15:32.900Z,7.70
2023-03-26T01:16:52.426Z,7.40
2023-03-26T01:17:58.115Z,8.20
2023-03-26T01:19:01.378Z,7.50
2023-03-26T01:20:13.510Z,9.23
2023-03-26T01:21:22.990Z,7.03
2023-03-26T01:22:27.270Z,6.93
2023-03-26T01:23:41.286Z,8.23
2023-03-26T01:24:46.411Z,7.47
2023-03-26T01:25:57.320Z,8.07
2023-03-26T01:27:12.424Z,8.38
2023-03-26T01:28:18.418Z,7.05
2023-03-26T01:29:32.732Z,7.32
2023-03-26T01:30:42.807Z,7.45
2023-03-26T01:31:54.343Z,7.75
2023-03-26T01:33:30.493Z,7.07
2023-03-26T01:34:40.388Z,6.28
2023-03-26T01:35:56.040Z,7.22
2023-03-26T01:37:15.460Z,7.68
2023-03-26T01:38:36.954Z,6.50
2023-03-26T01:40:07.462Z,6.80
2023-03-26T01:41:33.574Z,6.82
2023-03-26T01:42:40.583Z,7.35
2023-03-26T01:43:54.626Z,7.45
2023-03-26T01:45:26.459Z,7.38
2023-03-26T01:46:34.427Z,6.28
2023-03-26T01:47:38.658Z,6.95
2023-03-26T01:48:44.303Z,6.50
2023-03-26T01:49:48.834Z,6.72
2023-03-26T01:50:56.532Z,6.70
2023-03-26T01:51:59.952Z,6.55
2023-03-26T01:53:03.111Z,7.00
2023-03-26T01:54:10.715Z,6.60
2023-03-26T01:55:14.739Z,6.45
2023-03-26T01:56:31.816Z,6.80
2023-03-26T01:57:47.688Z,5.90
2023-03-26T01:59:38.442Z,6.35
2023-03-26T02:00:54.002Z,6.32
2023-03-26T02:01:57.640Z,6.60
2023-03-26T02:03:03.706Z,7.38
2023-03-26T02:04:16.785Z,6.97
2023-03-26T02:05:45.299Z,7.03
2023-03-26T02:06:59.953Z,6.93
2023-03-26T02:08:12.204Z,6.47
2023-03-26T02:09:23.911Z,6.93
2023-03-26T02:10:34.095Z,6.97
2023-03-26T02:11:38.659Z,6.63
2023-03-26T02:12:42.862Z,7.38
2023-03-26T02:13:46.985Z,8.23
2023-03-26T02:14:50.619Z,6.43
2023-03-26T02:16:17.010Z,6.95
2023-03-26T02:17:24.597Z,5.88
2023-03-26T02:18:36.987Z,7.25
2023-03-26T02:19:43.402Z,7.45
2023-03-26T02:20:46.605Z,6.10
2023-03-26T02:21:52.551Z,7.13
2023-03-26T02:22:57.834Z,6.65
2023-03-26T02:24:04.676Z,6.85
2023-03-26T02:25:13.781Z,6.53
2023-03-26T02:26:19.699Z,6.82
2023-03-26T02:27:43.733Z,5.68
2023-03-26T02:28:47.992Z,5.93
2023-03-26T02:29:52.161Z,6.78
2023-03-26T02:30:57.976Z,6.82
2023-03-26T02:32:02.517Z,6.70
2023-03-26T02:33:05.905Z,6.72
2023-03-26T02:34:17.282Z,7.15
2023-03-26T02:35:28.697Z,6.93
2023-03-26T02:36:36.212Z,6.93
2023-03-26T02:37:42.349Z,5.97
2023-03-26T02:38:53.381Z,7.40
2023-03-26T02:39:56.722Z,7.05
2023-03-26T02:41:07.789Z,6.75
2023-03-26T02:42:25.196Z,6.03
2023-03-26T02:43:28.933Z,7.15
2023-03-26T02:44:31.742Z,5.93
2023-03-26T02:45:35.075Z,6.30
2023-03-26T02:46:43.377Z,6.88
2023-03-26T02:48:06.416Z,5.45
2023-03-26T02:49:23.657Z,5.30
2023-03-26T02:50:26.861Z,6.32
2023-03-26T02:51:47.930Z,5.95
2023-03-26T02:53:01.917Z,7.05
2023-03-26T02:54:07.644Z,6.45
2023-03-26T02:55:10.695Z,6.55
2023-03-26T02:56:15.440Z,6.05
2023-03-26T02:57:31.431Z,6.28
2023-03-26T02:58:50.988Z,5.70
2023-03-26T02:59:53.909Z,7.05
2023-03-26T03:01:11.980Z,6.00
2023-03-26T03:02:25.900Z,6.90
2023-03-26T03:04:35.592Z,5.45
2023-03-26T03:05:38.432Z,5.70
2023-03-26T03:07:04.338Z,6.20
2023-03-26T03:08:07.245Z,6.05
2023-03-26T03:09:12.915Z,6.63
2023-03-26T03:10:38.022Z,6.25
2023-03-26T03:11:55.072Z,5.82
2023-03-26T03:12:57.879Z,6.57
2023-03-26T03:14:01.018Z,6.60
2023-03-26T03:15:05.875Z,5.75
2023-03-26T03:16:09.752Z,6.50
2023-03-26T03:17:14.395Z,6.47
2023-03-26T03:18:17.332Z,6.55
2023-03-26T03:19:20.583Z,7.13
2023-03-26T03:20:23.719Z,6.57
2023-03-26T03:21:28.967Z,6.85
2023-03-26T03:22:31.714Z,6.57
2023-03-26T03:23:34.619Z,7.30
2023-03-26T03:24:45.218Z,6.35
2023-03-26T03:25:48.977Z,6.68
2023-03-26T03:26:55.307Z,6.03
2023-03-26T03:28:33.447Z,6.32
2023-03-26T03:29:36.316Z,6.10
2023-03-26T03:31:14.787Z,6.63
2023-03-26T03:32:17.562Z,6.80
2023-03-26T03:33:24.395Z,6.78
2023-03-26T03:34:27.690Z,5.75
2023-03-26T03:35:31.040Z,5.97
2023-03-26T03:36:38.786Z,6.78
2023-03-26T03:37:58.962Z,7.18
2023-03-26T03:39:03.004Z,6.38
2023-03-26T03:40:11.006Z,6.20
2023-03-26T03:41:14.850Z,6.78
2023-03-26T03:42:19.539Z,6.72
2023-03-26T03:43:23.155Z,7.40
2023-03-26T03:44:42.741Z,6.40
2023-03-26T03:45:58.613Z,7.18
2023-03-26T03:47:13.853Z,7.72
2023-03-26T03:48:38.384Z,6.15
2023-03-26T03:50:03.052Z,5.85
2023-03-26T03:51:07.090Z,6.68
2023-03-26T03:52:31.237Z,6.43
2023-03-26T03:53:37.505Z,6.65
2023-03-26T03:54:41.278Z,6.82
2023-03-26T03:55:58.984Z,7.50
2023-03-26T03:57:16.265Z,6.63
2023-03-26T03:58:28.549Z,7.40
2023-03-26T03:59:37.984Z,6.80
2023-03-26T04:00:54.685Z,6.90
2023-03-26T04:02:26.567Z,6.50
2023-03-26T04:03:39.070Z,6.57
2023-03-26T04:04:52.112Z,5.97
2023-03-26T04:05:57.265Z,7.10
2023-03-26T04:07:02.382Z,6.53
2023-03-26T04:08:27.867Z,6.35
2023-03-26T04:09:32.531Z,6.75
2023-03-26T04:10:40.165Z,7.22
2023-03-26T04:11:51.113Z,7.78
2023-03-26T04:13:39.940Z,6.70
2023-03-26T04:15:02.478Z,6.28
2023-03-26T04:16:07.071Z,7.13
2023-03-26T04:17:10.593Z,6.95
2023-03-26T04:18:14.053Z,7.10
2023-03-26T04:19:19.783Z,7.93
2023-03-26T04:20:22.653Z,6.88
2023-03-26T04:21:30.761Z,6.75
2023-03-26T04:22:34.951Z,7.57
2023-03-26T04:23:40.465Z,7.35
2023-03-26T04:24:55.052Z,7.85
2023-03-26T04:26:10.675Z,7.35
2023-03-26T04:27:37.422Z,6.38
2023-03-26T04:28:51.398Z,6.78
2023-03-26T04:30:21.863Z,7.13
2023-03-26T04:31:31.326Z,6.65
2023-03-26T04:32:36.055Z,7.10
2023-03-26T04:33:41.759Z,7.05
2023-03-26T04:35:05.698Z,8.27
2023-03-26T04:36:10.473Z,6.68
2023-03-26T04:37:22.824Z,7.15
2023-03-26T04:38:41.731Z,6.65
2023-03-26T04:40:09.745Z,7.63
2023-03-26T04:41:36.092Z,7.63
2023-03-26T04:42:46.436Z,6.72
2023-03-26T04:44:05.835Z,7.28
2023-03-26T04:45:17.785Z,7.07
2023-03-26T04:46:23.929Z,7.03
2023-03-26T04:47:40.516Z,7.85
2023-03-26T04:48:44.326Z,7.43
2023-03-26T04:49:48.669Z,7.32
2023-03-26T04:50:53.180Z,7.13
2023-03-26T04:51:57.591Z,6.88
2023-03-26T04:53:21.608Z,6.78
2023-03-26T04:54:53.778Z,6.75
2023-03-26T04:56:21.443Z,6.78
2023-03-26T04:57:46.594Z,6.18
2023-03-26T04:59:05.331Z,6.95
2023-03-26T05:00:16.682Z,5.97
2023-03-26T05:01:26.603Z,6.50
2023-03-26T05:02:29.770Z,7.38
2023-03-26T05:03:32.804Z,7.13
2023-03-26T05:04:44.023Z,7.00
2023-03-26T05:05:47.549Z,6.97
2023-03-26T05:06:54.345Z,8.32
2023-03-26T05:08:12.384Z,6.47
2023-03-26T05:09:16.989Z,6.75
2023-03-26T05:10:41.028Z,7.00
2023-03-26T05:11:50.929Z,6.97
2023-03-26T05:12:54.545Z,6.85
2023-03-26T05:14:07.604Z,6.60
2023-03-26T05:15:14.460Z,9.07
2023-03-26T05:16:36.200Z,7.30
2023-03-26T05:17:44.024Z,7.05
2023-03-26T05:18:55.938Z,6.93
2023-03-26T05:20:01.183Z,6.65
2023-03-26T05:21:04.181Z,6.50
2023-03-26T05:22:07.827Z,7.03
2023-03-26T05:24:21.243Z,6.43
2023-03-26T05:25:24.365Z,6.57
2023-03-26T05:26:27.445Z,6.60
2023-03-26T05:27:30.717Z,7.55
2023-03-26T05:28:33.557Z,7.70
2023-03-26T05:29:44.001Z,6.70
2023-03-26T05:30:47.359Z,6.70
2023-03-26T05:31:51.942Z,6.50
2023-03-26T05:32:54.887Z,6.68
2023-03-26T05:34:03.474Z,6.70
2023-03-26T05:35:07.798Z,6.30
2023-03-26T05:36:15.621Z,6.32
2023-03-26T05:37:33.312Z,6.57
2023-03-26T05:38:40.176Z,6.95
2023-03-26T05:39:46.108Z,6.15
2023-03-26T05:41:13.527Z,7.07
2023-03-26T05:42:19.709Z,6.53
2023-03-26T05:43:45.133Z,6.05
2023-03-26T05:44:51.806Z,7.15
2023-03-26T05:46:00.725Z,6.32
2023-03-26T05:47:07.269Z,6.57
2023-03-26T05:48:12.332Z,6.93
2023-03-26T05:49:15.116Z,6.95
2023-03-26T05:50:18.582Z,6.30
2023-03-26T05:51:23.715Z,6.30
2023-03-26T05:52:37.138Z,8.02
2023-03-26T05:53:58.215Z,5.93
2023-03-26T05:55:01.172Z,6.88
2023-03-26T05:56:24.601Z,6.20
2023-03-26T05:57:45.772Z,6.18
2023-03-26T05:59:26.934Z,6.18
2023-03-26T06:01:08.747Z,6.53
2023-03-26T06:02:37.418Z,6.88
2023-03-26T06:04:10.059Z,6.25
2023-03-26T06:05:16.748Z,5.78
2023-03-26T06:06:37.847Z,5.80
2023-03-26T06:08:10.652Z,7.05
2023-03-26T06:09:14.988Z,6.55
2023-03-26T06:10:18.997Z,5.53
2023-03-26T06:11:22.459Z,5.68
2023-03-26T06:12:25.367Z,6.40
2023-03-26T06:13:28.599Z,6.43
2023-03-26T06:14:32.532Z,6.60
2023-03-26T06:16:01.513Z,6.35
2023-03-26T06:17:10.514Z,6.00
2023-03-26T06:18:33.300Z,6.05
2023-03-26T06:19:56.339Z,6.05
2023-03-26T06:21:08.271Z,6.55
2023-03-26T06:22:22.094Z,6.50
2023-03-26T06:24:00.573Z,5.68
2023-03-26T06:25:15.448Z,5.72
2023-03-26T06:26:30.137Z,5.97
2023-03-26T06:27:52.059Z,5.95
2023-03-26T06:29:15.713Z,5.65
2023-03-26T06:30:23.833Z,6.20
2023-03-26T06:31:37.454Z,6.15
2023-03-26T06:32:59.035Z,5.75
2023-03-26T06:34:05.541Z,5.90
2023-03-26T06:35:09.079Z,6.32
2023-03-26T06:36:12.108Z,6.18
2023-03-26T06:37:14.963Z,5.90
2023-03-26T06:38:19.193Z,6.18
2023-03-26T06:39:22.056Z,6.55
2023-03-26T06:41:06.420Z,6.07
2023-03-26T06:42:14.853Z,5.82
2023-03-26T06:43:23.803Z,5.53
2023-03-26T06:44:55.938Z,6.05
2023-03-26T06:46:28.243Z,5.45
2023-03-26T06:47:49.320Z,5.63
2023-03-26T06:49:19.541Z,5.70
2023-03-26T06:50:40.628Z,5.30
2023-03-26T06:52:03.210Z,5.85
2023-03-26T06:53:23.508Z,5.35
2023-03-26T06:54:34.809Z,5.97
2023-03-26T06:56:00.915Z,5.75
2023-03-26T06:57:26.642Z,5.93
2023-03-26T06:58:58.458Z,6.05
2023-03-26T07:00:20.522Z,5.63
2023-03-26T07:01:41.942Z,5.55
2023-03-26T07:03:05.004Z,5.90
2023-03-26T07:04:42.959Z,5.35
2023-03-26T07:06:06.040Z,5.20
2023-03-26T07:07:27.570Z,5.10
2023-03-26T07:08:49.093Z,5.30
2023-03-26T07:10:03.590Z,5.88
2023-03-26T07:11:38.534Z,5.38
2023-03-26T07:13:04.346Z,4.78
2023-03-26T07:14:31.495Z,4.97
2023-03-26T07:15:43.876Z,5.35
2023-03-26T07:17:07.443Z,5.03
2023-03-26T07:18:28.654Z,4.88
2023-03-26T07:19:32.116Z,5.07
2023-03-26T07:20:39.188Z,5.53
2023-03-26T07:21:42.493Z,5.53
2023-03-26T07:22:59.380Z,5.18
2023-03-26T07:24:32.122Z,4.70
2023-03-26T07:25:45.311Z,5.13
2023-03-26T07:27:02.705Z,4.70
2023-03-26T07:28:12.565Z,4.65
2023-03-26T07:29:57.177Z,4.82
2023-03-26T07:31:42.683Z,4.68
2023-03-26T07:33:06.248Z,4.65
2023-03-26T07:34:57.044Z,4.25
2023-03-26T07:36:33.699Z,4.53
2023-03-26T07:38:06.636Z,4.35
2023-03-26T07:39:58.678Z,4.20
2023-03-26T07:41:35.809Z,5.60
2023-03-26T07:43:16.978Z,4.80
2023-03-26T07:45:10.707Z,3.58
2023-03-26T07:46:34.361Z,5.07
2023-03-26T07:47:57.992Z,5.45
2023-03-26T07:49:20.917Z,4.40
2023-03-26T07:50:54.637Z,4.25
2023-03-26T07:52:18.685Z,3.88
2023-03-26T07:53:36.423Z,4.50
2023-03-26T07:54:58.077Z,4.68
2023-03-26T07:56:29.507Z,4.05
2023-03-26T07:58:35.737Z,4.03
2023-03-26T08:00:46.357Z,4.22
2023-03-26T08:02:22.696Z,3.78
2023-03-26T08:03:49.302Z,3.42
2023-03-26T08:05:30.709Z,3.97
2023-03-26T08:07:04.123Z,3.83
2023-03-26T08:08:54.046Z,3.30
2023-03-26T08:11:09.244Z,3.55
2023-03-26T08:13:02.725Z,3.65
2023-03-26T08:14:59.576Z,3.40
2023-03-26T08:16:19.671Z,4.13
2023-03-26T08:17:56.987Z,3.88
2023-03-26T08:19:06.421Z,3.55
2023-03-26T08:20:12.385Z,3.92
2023-03-26T08:21:28.567Z,4.47
2023-03-26T08:23:07.137Z,3.67
2023-03-26T08:24:39.855Z,3.97
2023-03-26T08:26:02.701Z,2.88
2023-03-26T08:27:13.752Z,3.97
2023-03-26T08:28:16.802Z,3.88
2023-03-26T08:29:22.452Z,3.67
2023-03-26T08:30:27.580Z,3.20
2023-03-26T08:31:40.236Z,3.28
2023-03-26T08:32:50.718Z,3.67
2023-03-26T08:33:53.700Z,3.75
2023-03-26T08:34:57.864Z,2.95
2023-03-26T08:36:00.861Z,3.25
2023-03-26T08:37:04.729Z,3.50
2023-03-26T08:38:07.762Z,4.75
2023-03-26T08:39:11.958Z,3.22
2023-03-26T08:40:23.014Z,3.33
2023-03-26T08:42:04.398Z,3.60
2023-03-26T08:43:42.733Z,3.00
2023-03-26T08:44:49.120Z,3.47
2023-03-26T08:46:13.744Z,3.22
2023-03-26T08:47:38.461Z,3.28
2023-03-26T08:49:13.036Z,3.55
2023-03-26T08:50:27.586Z,3.13
2023-03-26T08:51:45.956Z,3.53
2023-03-26T08:53:16.736Z,3.20
2023-03-26T08:54:46.480Z,2.92
2023-03-26T08:56:04.978Z,3.47
2023-03-26T08:57:40.721Z,3.17
2023-03-26T08:59:19.312Z,3.05
2023-03-26T09:00:49.343Z,2.47
2023-03-26T09:02:26.881Z,2.63
2023-03-26T09:04:26.145Z,2.67
2023-03-26T09:05:59.475Z,2.55
2023-03-26T09:07:28.506Z,2.75
2023-03-26T09:08:54.229Z,2.97
2023-03-26T09:10:06.511Z,3.00
2023-03-26T09:11:29.337Z,3.28
2023-03-26T09:12:50.612Z,2.90
2023-03-26T09:14:34.624Z,2.80
2023-03-26T09:16:08.807Z,4.03
2023-03-26T09:17:52.923Z,2.92
2023-03-26T09:19:20.006Z,3.00
2023-03-26T09:20:51.284Z,2.83
2023-03-26T09:21:53.977Z,2.95
2023-03-26T09:23:27.073Z,2.50
2023-03-26T09:25:01.785Z,2.58
2023-03-26T09:26:32.493Z,2.65
2023-03-26T09:28:26.037Z,2.95
2023-03-26T09:29:59.764Z,2.47
2023-03-26T09:31:33.337Z,2.38
2023-03-26T09:33:03.104Z,2.60
2023-03-26T09:34:17.452Z,3.67
2023-03-26T09:35:44.889Z,2.42
2023-03-26T09:36:50.683Z,2.30
2023-03-26T09:38:06.437Z,3.05
2023-03-26T09:39:10.523Z,2.72
2023-03-26T09:40:17.732Z,2.30
2023-03-26T09:41:44.220Z,2.50
2023-03-26T09:43:16.994Z,2.05
2023-03-26T09:44:23.409Z,2.78
2023-03-26T09:45:54.449Z,2.30
2023-03-26T09:48:24.321Z,1.98
2023-03-26T09:49:51.356Z,2.30
2023-03-26T09:51:17.104Z,2.88
2023-03-26T09:52:25.214Z,2.38
2023-03-26T09:54:03.178Z,2.30
2023-03-26T09:55:09.129Z,2.28
2023-03-26T09:56:47.239Z,2.15
2023-03-26T09:58:25.579Z,2.20
2023-03-26T09:59:43.209Z,2.50
2023-03-26T10:01:01.198Z,1.83
2023-03-26T10:02:46.323Z,2.35
2023-03-26T10:04:26.574Z,2.45
2023-03-26T10:05:41.722Z,1.83
2023-03-26T10:06:58.224Z,2.30
2023-03-26T10:08:37.579Z,2.10
2023-03-26T10:10:18.667Z,2.95
2023-03-26T10:11:57.217Z,2.75
2023-03-26T10:13:08.356Z,2.25
2023-03-26T10:14:29.291Z,2.40
2023-03-26T10:15:59.840Z,2.42
2023-03-26T10:17:38.967Z,1.88
2023-03-26T10:19:09.312Z,2.40
2023-03-26T10:20:37.818Z,2.05
2023-03-26T10:21:47.248Z,2.72
2023-03-26T10:23:00.106Z,2.53
2023-03-26T10:24:25.281Z,2.63
2023-03-26T10:25:49.989Z,2.60
2023-03-26T10:27:24.888Z,2.17
2023-03-26T10:29:04.927Z,1.95
2023-03-26T10:30:22.896Z,2.05
2023-03-26T10:31:48.389Z,2.03
2023-03-26T10:33:03.553Z,2.45
2023-03-26T10:34:28.443Z,2.58
2023-03-26T10:36:14.359Z,2.42
2023-03-26T10:37:45.947Z,2.17
2023-03-26T10:39:37.666Z,2.70
2023-03-26T10:40:49.282Z,1.95
2023-03-26T10:41:52.264Z,2.13
2023-03-26T10:43:06.888Z,2.13
2023-03-26T10:44:45.520Z,3.05
2023-03-26T10:46:08.484Z,2.20
2023-03-26T10:47:26.341Z,2.22
2023-03-26T10:48:42.213Z,2.15
2023-03-26T10:50:11.375Z,2.75
2023-03-26T10:51:43.043Z,1.98
2023-03-26T10:53:02.610Z,2.13
2023-03-26T10:54:34.556Z,2.40
2023-03-26T10:55:53.086Z,1.60
2023-03-26T10:56:57.076Z,2.40
2023-03-26T10:58:06.199Z,2.33
2023-03-26T10:59:13.176Z,2.40
2023-03-26T11:00:31.240Z,2.03
2023-03-26T11:01:47.329Z,2.00
2023-03-26T11:03:01.623Z,2.20
2023-03-26T11:04:35.906Z,2.33
2023-03-26T11:05:51.829Z,2.33
2023-03-26T11:06:59.408Z,2.20
2023-03-26T11:08:16.037Z,1.63
2023-03-26T11:09:47.744Z,2.22
2023-03-26T11:11:04.977Z,1.65
2023-03-26T11:12:33.570Z,2.47
2023-03-26T11:14:05.384Z,1.75
2023-03-26T11:15:18.431Z,1.92
2023-03-26T11:16:30.599Z,1.70
2023-03-26T11:18:15.788Z,2.38
2023-03-26T11:19:32.770Z,2.10
2023-03-26T11:20:39.999Z,1.95
2023-03-26T11:21:51.835Z,2.13
2023-03-26T11:22:57.394Z,2.10
2023-03-26T11:24:22.052Z,2.00
2023-03-26T11:25:36.442Z,2.70
2023-03-26T11:26:51.005Z,2.20
2023-03-26T11:27:56.691Z,2.00
2023-03-26T11:29:38.285Z,1.83
2023-03-26T11:31:05.738Z,1.80
2023-03-26T11:32:38.848Z,2.17
2023-03-26T11:33:50.309Z,2.03
2023-03-26T11:35:02.891Z,2.00
2023-03-26T11:36:12.403Z,2.30
2023-03-26T11:37:41.829Z,2.83
2023-03-26T11:38:48.230Z,1.90
2023-03-26T11:39:58.834Z,2.17
2023-03-26T11:41:04.772Z,1.77
2023-03-26T11:42:24.889Z,1.92
2023-03-26T11:43:36.220Z,2.30
2023-03-26T11:44:44.582Z,1.80
2023-03-26T11:45:51.239Z,2.25
2023-03-26T11:47:01.544Z,1.90
2023-03-26T11:48:08.416Z,2.10
2023-03-26T11:49:16.509Z,1.70
2023-03-26T11:50:26.048Z,1.80
2023-03-26T11:51:37.155Z,1.85
2023-03-26T11:52:39.901Z,2.35
2023-03-26T11:53:46.867Z,2.00
2023-03-26T11:54:52.687Z,1.88
2023-03-26T11:56:15.183Z,2.40
2023-03-26T11:57:27.150Z,1.50
2023-03-26T11:58:51.491Z,1.85
2023-03-26T12:00:12.045Z,2.25
2023-03-26T12:01:30.220Z,1.80
2023-03-26T12:02:40.155Z,1.92
2023-03-26T12:03:43.189Z,2.13
2023-03-26T12:04:51.655Z,2.10
2023-03-26T12:05:59.853Z,2.00
2023-03-26T12:07:09.681Z,2.03
2023-03-26T12:08:21.939Z,1.60
2023-03-26T12:09:27.045Z,1.63
2023-03-26T12:10:39.735Z,2.08
2023-03-26T12:11:45.454Z,1.95
2023-03-26T12:12:48.960Z,2.30
2023-03-26T12:13:56.781Z,2.20
2023-03-26T12:15:00.590Z,1.98
2023-03-26T12:16:13.104Z,1.92
2023-03-26T12:17:30.949Z,1.92
2023-03-26T12:18:35.511Z,2.08
2023-03-26T12:19:44.113Z,1.90
2023-03-26T12:20:47.239Z,2.42
2023-03-26T12:21:54.067Z,2.13
2023-03-26T12:22:59.660Z,1.88
2023-03-26T12:24:24.669Z,1.90
2023-03-26T12:25:33.232Z,1.95
2023-03-26T12:26:41.919Z,1.85
2023-03-26T12:27:50.451Z,2.08
2023-03-26T12:28:53.316Z,1.52
2023-03-26T12:30:09.132Z,1.80
2023-03-26T12:31:18.507Z,1.80
2023-03-26T12:32:22.530Z,2.10
2023-03-26T12:33:30.080Z,2.00
2023-03-26T12:34:39.617Z,1.70
2023-03-26T12:35:43.166Z,1.75
2023-03-26T12:36:55.476Z,1.92
2023-03-26T12:38:16.739Z,1.63
2023-03-26T12:40:08.660Z,1.80
2023-03-26T12:43:40.205Z,2.30
2023-03-26T12:44:48.639Z,1.58
2023-03-26T12:44:50.059Z,1.92
2023-03-26T12:47:26.505Z,2.13
2023-03-26T12:47:57.024Z,2.15
2023-03-26T12:48:49.279Z,1.98
2023-03-26T12:49:53.384Z,2.00
2023-03-26T12:51:14.036Z,1.75
2023-03-26T12:52:41.690Z,1.70
2023-03-26T12:54:03.442Z,2.08
2023-03-26T12:55:24.360Z,1.83
2023-03-26T12:56:38.880Z,1.83
2023-03-26T12:58:13.501Z,1.58
2023-03-26T12:59:42.484Z,2.13
2023-03-26T13:01:03.738Z,1.70
2023-03-26T13:02:36.534Z,1.80
2023-03-26T13:04:34.652Z,1.83
2023-03-26T13:05:56.426Z,1.92
2023-03-26T13:07:11.054Z,1.60
2023-03-26T13:08:32.930Z,1.73
2023-03-26T13:10:00.933Z,1.90
2023-03-26T13:11:35.960Z,1.73
2023-03-26T13:12:53.527Z,1.45
2023-03-26T13:14:20.176Z,1.45
2023-03-26T13:15:29.484Z,2.03
2023-03-26T13:17:12.998Z,2.05
2023-03-26T13:18:53.261Z,1.92
2023-03-26T13:20:12.609Z,1.73
2023-03-26T13:21:34.383Z,1.20
2023-03-26T13:23:03.116Z,1.70
2023-03-26T13:24:16.056Z,1.90
2023-03-26T13:25:27.118Z,1.88
2023-03-26T13:27:05.241Z,1.88
2023-03-26T13:28:34.307Z,1.52
2023-03-26T13:30:02.807Z,1.73
2023-03-26T13:31:33.424Z,2.22
2023-03-26T13:32:48.022Z,2.15
2023-03-26T13:34:16.402Z,1.67
2023-03-26T13:35:25.144Z,2.05
2023-03-26T13:37:06.189Z,1.85
2023-03-26T13:38:59.334Z,1.58
2023-03-26T13:40:28.361Z,1.77
2023-03-26T13:42:07.384Z,1.17
2023-03-26T13:43:25.267Z,1.70
2023-03-26T13:44:42.379Z,1.45
2023-03-26T13:46:06.096Z,1.55
2023-03-26T13:47:18.289Z,1.25
2023-03-26T13:48:26.253Z,1.70
2023-03-26T13:49:38.984Z,1.90
2023-03-26T13:50:44.940Z,1.60
2023-03-26T13:52:32.411Z,1.63
2023-03-26T13:53:47.185Z,1.45
2023-03-26T13:54:57.338Z,1.52
2023-03-26T13:56:01.042Z,1.13
2023-03-26T13:57:14.660Z,1.60
2023-03-26T13:58:27.246Z,2.88
2023-03-26T14:00:01.406Z,1.20
2023-03-26T14:01:17.022Z,1.75
2023-03-26T14:02:22.672Z,1.52
2023-03-26T14:03:56.113Z,1.63
2023-03-26T14:05:10.416Z,1.40
2023-03-26T14:06:27.898Z,1.65
2023-03-26T14:08:04.399Z,1.70
2023-03-26T14:09:32.209Z,1.90
2023-03-26T14:10:43.375Z,2.03
2023-03-26T14:11:57.020Z,1.70
2023-03-26T14:13:02.824Z,2.00
2023-03-26T14:14:26.396Z,1.58
2023-03-26T14:15:34.919Z,1.70
2023-03-26T14:16:48.485Z,1.70
2023-03-26T14:18:02.758Z,1.75
2023-03-26T14:19:29.280Z,1.70
2023-03-26T14:20:40.576Z,1.63
2023-03-26T14:22:04.007Z,1.65
2023-03-26T14:23:31.539Z,2.03
2023-03-26T14:25:02.577Z,1.73
2023-03-26T14:26:14.177Z,1.75
2023-03-26T14:27:35.898Z,1.45
2023-03-26T14:28:58.889Z,1.60
2023-03-26T14:30:29.058Z,1.75
2023-03-26T14:31:57.208Z,1.60
2023-03-26T14:33:30.560Z,1.40
2023-03-26T14:34:38.811Z,1.30
2023-03-26T14:36:01.571Z,1.50
2023-03-26T14:37:17.319Z,1.25
2023-03-26T14:38:51.443Z,1.67
2023-03-26T14:40:21.620Z,1.73
2023-03-26T14:41:48.234Z,1.55
2023-03-26T14:42:58.233Z,1.63
2023-03-26T14:44:28.755Z,1.27
2023-03-26T14:45:43.841Z,1.40
2023-03-26T14:47:06.585Z,1.70
2023-03-26T14:48:22.190Z,1.38
2023-03-26T14:49:35.260Z,1.73
2023-03-26T14:50:59.359Z,1.38
2023-03-26T14:52:21.325Z,1.50
2023-03-26T14:53:34.810Z,2.20
2023-03-26T14:54:45.271Z,1.95
2023-03-26T14:55:54.393Z,1.40
2023-03-26T14:57:27.666Z,1.60
2023-03-26T14:58:58.218Z,1.50
2023-03-26T15:00:17.839Z,1.42
2023-03-26T15:01:57.296Z,1.33
2023-03-26T15:03:07.684Z,1.33
2023-03-26T15:04:56.031Z,1.55
2023-03-26T15:06:23.269Z,1.45
2023-03-26T15:07:41.714Z,1.55
2023-03-26T15:08:58.606Z,1.48
2023-03-26T15:10:23.116Z,1.40
2023-03-26T15:12:13.149Z,1.60
2023-03-26T15:13:37.514Z,1.95
2023-03-26T15:15:04.512Z,1.73
2023-03-26T15:16:07.588Z,1.30
2023-03-26T15:17:38.414Z,2.08
2023-03-26T15:19:17.951Z,1.52
2023-03-26T15:21:08.014Z,1.23
2023-03-26T15:22:38.760Z,1.38
2023-03-26T15:24:15.612Z,1.05
2023-03-26T15:25:41.428Z,1.13
2023-03-26T15:27:01.555Z,1.30
2023-03-26T15:28:36.254Z,1.35
2023-03-26T15:29:46.092Z,1.20
2023-03-26T15:31:07.053Z,1.27
2023-03-26T15:32:49.681Z,1.25
2023-03-26T15:34:13.435Z,1.42
2023-03-26T15:35:46.020Z,1.38
2023-03-26T15:37:12.237Z,1.60
2023-03-26T15:38:51.822Z,1.30
2023-03-26T15:40:20.570Z,1.02
2023-03-26T15:41:51.016Z,1.45
2023-03-26T15:43:21.294Z,1.35
2023-03-26T15:44:54.124Z,1.30
2023-03-26T15:46:23.533Z,1.27
2023-03-26T15:47:36.102Z,1.60
2023-03-26T15:48:53.818Z,1.38
2023-03-26T15:50:35.534Z,1.88
2023-03-26T15:51:54.506Z,1.13
2023-03-26T15:53:24.373Z,1.38
2023-03-26T15:54:32.920Z,1.50
2023-03-26T15:55:52.998Z,1.23
2023-03-26T15:57:47.405Z,1.20
2023-03-26T15:59:16.805Z,1.42
2023-03-26T16:00:20.066Z,1.52
2023-03-26T16:01:46.481Z,1.48
2023-03-26T16:02:53.977Z,1.40
2023-03-26T16:04:03.669Z,1.45
2023-03-26T16:05:25.472Z,1.23
2023-03-26T16:06:41.621Z,1.23
2023-03-26T16:08:38.707Z,1.42
2023-03-26T16:10:09.855Z,1.08
2023-03-26T16:11:13.773Z,1.05
2023-03-26T16:12:16.717Z,1.50
2023-03-26T16:13:41.847Z,1.00
2023-03-26T16:15:20.339Z,1.15
2023-03-26T16:16:26.229Z,1.50
2023-03-26T16:18:09.446Z,1.25
2023-03-26T16:19:22.025Z,1.67
2023-03-26T16:20:35.171Z,1.08
2023-03-26T16:22:33.419Z,1.80
2023-03-26T16:23:49.398Z,1.25
2023-03-26T16:25:32.904Z,1.30
2023-03-26T16:26:45.571Z,1.17
2023-03-26T16:30:01.225Z,1.10
2023-03-26T16:31:36.191Z,1.38
2023-03-26T16:32:46.917Z,1.40
2023-03-26T16:33:56.582Z,1.45
2023-03-26T16:35:22.158Z,1.30
2023-03-26T16:36:35.371Z,1.42
2023-03-26T16:37:51.535Z,1.40
2023-03-26T16:39:12.587Z,1.48
2023-03-26T16:40:21.673Z,1.33
2023-03-26T16:41:28.933Z,1.40
2023-03-26T16:42:54.389Z,1.20
2023-03-26T16:44:20.819Z,0.90
2023-03-26T16:45:32.686Z,1.20
2023-03-26T16:46:44.874Z,1.00
2023-03-26T16:47:58.601Z,1.35
2023-03-26T16:49:29.495Z,1.25
2023-03-26T16:50:42.191Z,1.13
2023-03-26T16:52:07.573Z,1.58
2023-03-26T16:53:22.398Z,1.00
2023-03-26T16:54:34.743Z,1.20
2023-03-26T16:56:14.324Z,1.52
2023-03-26T16:57:47.728Z,1.00
2023-03-26T16:58:51.232Z,1.13
2023-03-26T17:00:16.868Z,1.40
2023-03-26T17:01:52.442Z,1.05
2023-03-26T17:03:25.923Z,1.40
2023-03-26T17:04:33.288Z,1.10
2023-03-26T17:05:58.880Z,0.95
2023-03-26T17:07:24.507Z,0.93
2023-03-26T17:08:45.268Z,1.17
2023-03-26T17:09:55.772Z,1.00
2023-03-26T17:11:29.836Z,1.30
2023-03-26T17:12:51.224Z,1.17
2023-03-26T17:14:17.105Z,1.38
2023-03-26T17:15:26.676Z,1.30